createdAt,value
2023-04-02T00:00:13.839Z,5.70
2023-04-02T00:02:51.442Z,5.68
2023-04-02T00:05:34.862Z,5.64
2023-04-02T00:08:10.424Z,5.62
2023-04-02T00:10:57.832Z,5.63
2023-04-02T00:13:33.402Z,5.58
2023-04-02T00:16:05.561Z,5.62
2023-04-02T00:18:37.309Z,5.61
2023-04-02T00:21:24.222Z,5.60
2023-04-02T00:23:56.030Z,5.57
2023-04-02T00:26:33.666Z,5.59
2023-04-02T00:29:04.977Z,5.63
2023-04-02T00:31:35.025Z,5.56
2023-04-02T00:34:12.251Z,5.58
2023-04-02T00:36:43.711Z,5.53
2023-04-02T00:39:16.245Z,5.54
2023-04-02T00:41:46.583Z,5.46
2023-04-02T00:44:22.219Z,5.48
2023-04-02T00:46:52.889Z,5.49
2023-04-02T00:49:25.769Z,5.46
2023-04-02T00:52:00.410Z,5.47
2023-04-02T00:54:32.408Z,5.44
2023-04-02T00:57:02.810Z,5.42
2023-04-02T00:59:37.667Z,5.41
2023-04-02T01:02:19.195Z,5.40
2023-04-02T01:05:00.374Z,5.40
2023-04-02T01:07:42.351Z,5.37
2023-04-02T01:10:36.005Z,5.34
2023-04-02T01:13:27.640Z,5.33
2023-04-02T01:16:08.925Z,5.26
2023-04-02T01:18:58.185Z,5.28
2023-04-02T01:21:51.597Z,5.26
2023-04-02T01:24:22.227Z,5.29
2023-04-02T01:26:57.960Z,5.22
2023-04-02T01:29:44.998Z,5.19
2023-04-02T01:32:16.594Z,5.24
2023-04-02T01:34:47.647Z,5.19
2023-04-02T01:37:23.295Z,5.18
2023-04-02T01:40:17.724Z,5.16
2023-04-02T01:42:58.915Z,5.09
2023-04-02T01:45:29.819Z,5.09
2023-04-02T01:47:59.624Z,5.04
2023-04-02T01:50:32.489Z,5.05
2023-04-02T01:53:05.320Z,5.05
2023-04-02T01:55:41.238Z,5.05
2023-04-02T01:58:13.355Z,5.06
2023-04-02T02:00:56.168Z,5.03
2023-04-02T02:03:26.235Z,5.00
2023-04-02T02:05:56.320Z,4.97
2023-04-02T02:08:34.924Z,4.97
2023-04-02T02:11:05.827Z,4.94
2023-04-02T02:13:35.399Z,4.94
2023-04-02T02:16:06.057Z,4.95
2023-04-02T02:18:35.656Z,4.89
2023-04-02T02:21:06.619Z,4.94
2023-04-02T02:23:36.400Z,4.95
2023-04-02T02:26:07.118Z,4.93
2023-04-02T02:28:39.176Z,4.99
2023-04-02T02:31:13.041Z,4.95
2023-04-02T02:33:45.978Z,4.93
2023-04-02T02:36:26.138Z,4.97
2023-04-02T02:38:57.665Z,4.88
2023-04-02T02:41:46.139Z,4.84
2023-04-02T02:44:19.266Z,4.80
2023-04-02T02:47:02.698Z,4.80
2023-04-02T02:49:35.400Z,4.77
2023-04-02T02:52:11.456Z,4.74
2023-04-02T02:54:51.220Z,4.74
2023-04-02T02:57:23.967Z,4.73
2023-04-02T02:59:52.910Z,4.70
2023-04-02T03:02:22.313Z,4.73
2023-04-02T03:04:53.182Z,4.73
2023-04-02T03:07:26.542Z,4.68
2023-04-02T03:10:20.993Z,4.73
2023-04-02T03:12:59.387Z,4.70
2023-04-02T03:15:38.373Z,4.68
2023-04-02T03:18:29.407Z,4.65
2023-04-02T03:21:05.128Z,4.64
2023-04-02T03:23:37.267Z,4.64
2023-04-02T03:26:19.161Z,4.65
2023-04-02T03:28:52.378Z,4.64
2023-04-02T03:31:36.438Z,4.59
2023-04-02T03:34:21.259Z,4.63
2023-04-02T03:37:21.873Z,4.66
2023-04-02T03:39:56.738Z,4.61
2023-04-02T03:42:29.791Z,4.58
2023-04-02T03:45:09.982Z,4.56
2023-04-02T03:48:06.643Z,4.59
2023-04-02T03:50:48.703Z,4.59
2023-04-02T03:53:18.172Z,4.48
2023-04-02T03:55:48.111Z,4.50
2023-04-02T03:58:23.920Z,4.44
2023-04-02T04:01:03.102Z,4.49
2023-04-02T04:03:40.998Z,4.44
2023-04-02T04:06:27.960Z,4.46
2023-04-02T04:09:03.828Z,4.39
2023-04-02T04:11:35.932Z,4.45
2023-04-02T04:14:19.905Z,4.37
2023-04-02T04:17:01.946Z,4.34
2023-04-02T04:19:57.322Z,4.29
2023-04-02T04:22:32.874Z,4.19
2023-04-02T04:25:25.431Z,4.15
2023-04-02T04:27:56.745Z,4.19
2023-04-02T04:30:29.128Z,4.10
2023-04-02T04:33:05.709Z,4.08
2023-04-02T04:35:40.609Z,4.03
2023-04-02T04:38:15.633Z,3.98
2023-04-02T04:40:52.145Z,3.96
2023-04-02T04:43:42.860Z,3.90
2023-04-02T04:46:15.377Z,3.89
2023-04-02T04:49:09.004Z,3.77
2023-04-02T04:51:42.045Z,3.76
2023-04-02T04:54:14.202Z,3.72
2023-04-02T04:56:52.667Z,3.77
2023-04-02T04:59:25.803Z,3.73
2023-04-02T05:02:02.998Z,3.77
2023-04-02T05:04:43.796Z,3.71
2023-04-02T05:07:23.571Z,3.77
2023-04-02T05:09:56.722Z,3.75
2023-04-02T05:12:35.335Z,3.73
2023-04-02T05:15:09.314Z,3.70
2023-04-02T05:17:49.048Z,3.75
2023-04-02T05:20:30.729Z,3.75
2023-04-02T05:23:13.300Z,3.72
2023-04-02T05:26:12.064Z,3.72
2023-04-02T05:28:53.009Z,3.75
2023-04-02T05:31:29.186Z,3.70
2023-04-02T05:33:59.549Z,3.74
2023-04-02T05:36:30.568Z,3.68
2023-04-02T05:39:01.518Z,3.62
2023-04-02T05:41:45.426Z,3.60
2023-04-02T05:44:28.125Z,3.62
2023-04-02T05:46:59.267Z,3.58
2023-04-02T05:49:39.235Z,3.55
2023-04-02T05:52:15.754Z,3.60
2023-04-02T05:55:08.072Z,3.53
2023-04-02T05:57:45.856Z,3.52
2023-04-02T06:00:17.543Z,3.53
2023-04-02T06:03:00.365Z,3.54
2023-04-02T06:05:33.201Z,3.53
2023-04-02T06:08:12.024Z,3.48
2023-04-02T06:10:56.421Z,3.52
2023-04-02T06:13:28.870Z,3.41
2023-04-02T06:15:58.708Z,3.48
2023-04-02T06:18:31.701Z,3.46
2023-04-02T06:21:01.868Z,3.46
2023-04-02T06:23:42.790Z,3.47
2023-04-02T06:26:31.382Z,3.46
2023-04-02T06:29:18.510Z,3.44
2023-04-02T06:31:58.232Z,3.37
2023-04-02T06:34:30.213Z,3.39
2023-04-02T06:37:22.135Z,3.39
2023-04-02T06:39:53.379Z,3.41
2023-04-02T06:42:28.330Z,3.43
2023-04-02T06:45:06.518Z,3.37
2023-04-02T06:47:46.971Z,3.36
2023-04-02T06:50:24.234Z,3.48
2023-04-02T06:52:56.162Z,3.44
2023-04-02T06:55:43.408Z,3.42
2023-04-02T06:58:12.931Z,3.52
2023-04-02T07:00:44.434Z,3.61
2023-04-02T07:03:27.551Z,3.79
2023-04-02T07:05:59.629Z,3.76
2023-04-02T07:08:28.997Z,3.67
2023-04-02T07:10:58.679Z,3.75
2023-04-02T07:13:28.435Z,3.71
2023-04-02T07:15:58.529Z,3.52
2023-04-02T07:18:34.070Z,3.37
2023-04-02T07:21:05.182Z,3.22
2023-04-02T07:23:34.879Z,3.11
2023-04-02T07:26:04.905Z,3.14
2023-04-02T07:28:35.013Z,3.29
2023-04-02T07:31:04.318Z,3.41
2023-04-02T07:33:33.638Z,3.42
2023-04-02T07:36:03.278Z,3.34
2023-04-02T07:38:32.580Z,3.27
2023-04-02T07:41:06.834Z,3.21
2023-04-02T07:43:36.422Z,3.26
2023-04-02T07:46:06.754Z,3.07
2023-04-02T07:48:36.552Z,3.07
2023-04-02T07:51:07.108Z,3.14
2023-04-02T07:53:38.664Z,3.08
2023-04-02T07:56:09.288Z,3.17
2023-04-02T07:58:38.699Z,3.32
2023-04-02T08:01:11.356Z,3.32
2023-04-02T08:03:41.505Z,3.31
2023-04-02T08:06:11.846Z,3.39
2023-04-02T08:08:41.275Z,3.44
2023-04-02T08:11:10.924Z,3.70
2023-04-02T08:13:40.871Z,3.60
2023-04-02T08:16:10.770Z,3.65
2023-04-02T08:18:40.559Z,3.56
2023-04-02T08:21:11.316Z,3.82
2023-04-02T08:23:40.690Z,4.01
2023-04-02T08:26:10.038Z,3.83
2023-04-02T08:28:39.301Z,3.71
2023-04-02T08:31:09.309Z,3.54
2023-04-02T08:33:38.678Z,3.41
2023-04-02T08:36:08.552Z,3.40
2023-04-02T08:38:37.842Z,3.43
2023-04-02T08:41:07.192Z,3.45
2023-04-02T08:43:42.130Z,3.52
2023-04-02T08:46:23.956Z,3.63
2023-04-02T08:48:56.963Z,3.70
2023-04-02T08:51:29.561Z,3.73
2023-04-02T08:53:59.730Z,3.68
2023-04-02T08:56:32.346Z,3.77
2023-04-02T08:59:04.123Z,3.85
2023-04-02T09:01:49.118Z,4.11
2023-04-02T09:04:21.906Z,4.12
2023-04-02T09:06:53.481Z,4.08
2023-04-02T09:09:23.980Z,4.12
2023-04-02T09:12:03.050Z,4.38
2023-04-02T09:14:43.883Z,4.33
2023-04-02T09:17:19.179Z,4.41
2023-04-02T09:20:08.407Z,4.29
2023-04-02T09:22:38.399Z,4.33
2023-04-02T09:25:11.459Z,4.15
2023-04-02T09:27:40.701Z,4.12
2023-04-02T09:30:34.071Z,4.43
2023-04-02T09:33:06.597Z,4.35
2023-04-02T09:35:36.057Z,4.31
2023-04-02T09:38:24.003Z,4.56
2023-04-02T09:40:57.075Z,4.75
2023-04-02T09:43:29.537Z,4.11
2023-04-02T09:46:08.358Z,4.04
2023-04-02T09:48:43.936Z,3.83
2023-04-02T09:51:21.918Z,4.03
2023-04-02T09:53:55.797Z,4.02
2023-04-02T09:56:26.523Z,4.09
2023-04-02T09:59:17.092Z,4.03
2023-04-02T10:01:58.183Z,4.11
2023-04-02T10:04:44.632Z,3.94
2023-04-02T10:07:45.953Z,4.42
2023-04-02T10:10:27.786Z,4.28
2023-04-02T10:13:00.347Z,4.24
2023-04-02T10:15:30.728Z,4.29
2023-04-02T10:18:12.088Z,4.19
2023-04-02T10:20:51.035Z,4.03
2023-04-02T10:23:18.101Z,4.35
2023-04-02T10:25:57.521Z,4.39
2023-04-02T10:28:45.263Z,4.27
2023-04-02T10:31:26.146Z,4.21
2023-04-02T10:33:58.623Z,4.19
2023-04-02T10:36:40.174Z,3.96
2023-04-02T10:39:31.366Z,4.05
2023-04-02T10:42:03.883Z,4.13
2023-04-02T10:44:40.092Z,4.01
2023-04-02T10:47:25.716Z,3.88
2023-04-02T10:50:29.738Z,3.66
2023-04-02T10:53:14.249Z,3.69
2023-04-02T10:55:52.542Z,3.69
2023-04-02T10:58:24.757Z,3.66
2023-04-02T11:01:02.718Z,3.88
2023-04-02T11:03:35.222Z,3.88
2023-04-02T11:06:09.699Z,3.83
2023-04-02T11:08:48.353Z,3.96
2023-04-02T11:11:23.798Z,3.95
2023-04-02T11:14:26.149Z,4.18
2023-04-02T11:16:58.093Z,4.27
2023-04-02T11:19:30.603Z,4.36
2023-04-02T11:22:01.465Z,4.32
2023-04-02T11:24:44.794Z,4.44
2023-04-02T11:27:29.100Z,4.57
2023-04-02T11:30:04.387Z,4.50
2023-04-02T11:32:39.713Z,4.35
2023-04-02T11:35:33.852Z,4.43
2023-04-02T11:38:06.783Z,4.52
2023-04-02T11:41:01.510Z,4.30
2023-04-02T11:43:41.393Z,5.04
2023-04-02T11:46:33.442Z,6.98
2023-04-02T11:49:22.441Z,9.18
2023-04-02T11:51:59.219Z,10.23
2023-04-02T11:54:24.824Z,10.43
2023-04-02T11:56:57.328Z,10.42
2023-04-02T11:59:30.560Z,10.60
2023-04-02T12:02:03.418Z,10.73
2023-04-02T12:04:44.754Z,10.27
2023-04-02T12:07:17.927Z,10.43
2023-04-02T12:09:56.132Z,9.61
2023-04-02T12:12:28.039Z,8.13
2023-04-02T12:14:59.129Z,9.00
2023-04-02T12:17:39.361Z,8.14
2023-04-02T12:20:13.694Z,7.66
2023-04-02T12:22:48.254Z,9.00
2023-04-02T12:25:23.304Z,8.86
2023-04-02T12:28:14.454Z,8.71
2023-04-02T12:30:43.918Z,10.31
2023-04-02T12:33:25.138Z,10.19
2023-04-02T12:35:57.794Z,11.01
2023-04-02T12:38:32.320Z,11.33
2023-04-02T12:41:04.831Z,11.47
2023-04-02T12:43:37.864Z,11.44
2023-04-02T12:46:08.566Z,11.31
2023-04-02T12:48:38.460Z,11.09
2023-04-02T12:51:07.928Z,11.69
2023-04-02T12:53:39.900Z,11.34
2023-04-02T12:56:09.636Z,11.88
2023-04-02T12:58:42.745Z,11.41
2023-04-02T13:01:14.659Z,12.38
2023-04-02T13:03:44.126Z,12.01
2023-04-02T13:06:17.274Z,11.67
2023-04-02T13:08:46.903Z,11.56
2023-04-02T13:11:16.332Z,12.00
2023-04-02T13:13:46.993Z,11.92
2023-04-02T13:16:19.644Z,11.93
2023-04-02T13:18:50.248Z,11.79
2023-04-02T13:21:28.117Z,11.77
2023-04-02T13:23:57.528Z,12.29
2023-04-02T13:26:28.964Z,12.79
2023-04-02T13:29:07.445Z,12.84
2023-04-02T13:31:37.074Z,13.14
2023-04-02T13:34:06.513Z,13.05
2023-04-02T13:36:37.216Z,12.73
2023-04-02T13:39:06.836Z,12.36
2023-04-02T13:41:39.272Z,12.12
2023-04-02T13:44:10.660Z,12.32
2023-04-02T13:46:39.920Z,13.16
2023-04-02T13:49:11.715Z,12.98
2023-04-02T13:51:44.573Z,13.03
2023-04-02T13:54:17.246Z,12.71
2023-04-02T13:56:46.699Z,12.71
2023-04-02T13:59:16.519Z,13.12
2023-04-02T14:01:47.674Z,14.04
2023-04-02T14:04:22.932Z,13.32
2023-04-02T14:07:13.638Z,12.94
2023-04-02T14:10:03.885Z,13.10
2023-04-02T14:13:01.746Z,13.69
2023-04-02T14:15:57.787Z,13.22
2023-04-02T14:18:33.109Z,13.00
2023-04-02T14:21:05.606Z,12.26
2023-04-02T14:23:44.148Z,12.40
2023-04-02T14:26:19.272Z,12.87
2023-04-02T14:28:53.519Z,12.59
2023-04-02T14:31:35.047Z,13.02
2023-04-02T14:34:16.324Z,12.64
2023-04-02T14:36:55.940Z,12.79
2023-04-02T14:39:43.327Z,12.83
2023-04-02T14:42:17.171Z,13.05
2023-04-02T14:44:53.033Z,13.27
2023-04-02T14:47:25.786Z,13.14
2023-04-02T14:49:58.175Z,12.44
2023-04-02T14:52:29.589Z,11.81
2023-04-02T14:55:05.300Z,12.57
2023-04-02T14:57:37.003Z,12.85
2023-04-02T15:00:28.035Z,12.73
2023-04-02T15:03:11.681Z,12.79
2023-04-02T15:05:48.968Z,13.08
2023-04-02T15:08:29.808Z,13.19
2023-04-02T15:11:08.551Z,13.48
2023-04-02T15:13:43.976Z,12.69
2023-04-02T15:16:20.681Z,12.85
2023-04-02T15:19:00.826Z,12.36
2023-04-02T15:21:55.616Z,13.63
2023-04-02T15:24:19.065Z,13.44
2023-04-02T15:27:27.332Z,14.03
2023-04-02T15:30:17.691Z,14.23
2023-04-02T15:32:48.944Z,13.67
2023-04-02T15:35:31.527Z,13.87
2023-04-02T15:38:22.698Z,13.72
2023-04-02T15:41:01.286Z,13.84
2023-04-02T15:43:39.231Z,13.76
2023-04-02T15:46:23.164Z,13.52
2023-04-02T15:49:14.024Z,14.10
2023-04-02T15:52:02.758Z,13.13
2023-04-02T15:54:54.840Z,12.54
2023-04-02T15:57:43.652Z,12.92
2023-04-02T16:00:31.159Z,12.90
2023-04-02T16:03:20.995Z,12.77
2023-04-02T16:06:02.076Z,12.11
2023-04-02T16:08:46.892Z,12.03
2023-04-02T16:11:16.773Z,12.21
2023-04-02T16:13:47.431Z,11.61
2023-04-02T16:16:35.078Z,11.52
2023-04-02T16:19:20.833Z,10.87
2023-04-02T16:21:56.684Z,11.59
2023-04-02T16:24:26.412Z,12.10
2023-04-02T16:26:58.477Z,11.67
2023-04-02T16:29:54.332Z,11.83
2023-04-02T16:32:28.140Z,10.93
2023-04-02T16:35:41.031Z,11.60
2023-04-02T16:38:07.161Z,11.51
2023-04-02T16:41:00.570Z,10.69
2023-04-02T16:43:37.844Z,10.58
2023-04-02T16:49:03.548Z,9.71
2023-04-02T16:51:47.840Z,9.45
2023-04-02T16:54:26.315Z,9.21
2023-04-02T16:57:18.319Z,8.99
2023-04-02T16:59:53.605Z,8.74
2023-04-02T17:02:46.115Z,8.73
2023-04-02T17:05:37.008Z,8.56
2023-04-02T17:08:23.927Z,8.43
2023-04-02T17:11:02.374Z,8.34
2023-04-02T17:13:43.157Z,8.32
2023-04-02T17:16:21.848Z,8.22
2023-04-02T17:18:53.467Z,8.14
2023-04-02T17:21:26.428Z,8.08
2023-04-02T17:23:59.132Z,8.00
2023-04-02T17:26:30.516Z,7.96
2023-04-02T17:29:02.705Z,7.83
2023-04-02T17:31:35.187Z,7.73
2023-04-02T17:34:11.264Z,7.63
2023-04-02T17:36:49.369Z,7.51
2023-04-02T17:39:38.657Z,7.45
2023-04-02T17:42:23.134Z,7.40
2023-04-02T17:44:56.121Z,7.33
2023-04-02T17:47:31.359Z,7.14
2023-04-02T17:50:20.165Z,7.00
2023-04-02T17:53:09.918Z,6.87
2023-04-02T17:55:45.118Z,6.72
2023-04-02T17:58:17.803Z,6.59
2023-04-02T18:01:09.845Z,6.54
2023-04-02T18:03:49.387Z,6.59
2023-04-02T18:06:24.050Z,6.53
2023-04-02T18:09:16.370Z,6.46
2023-04-02T18:11:51.618Z,6.41
2023-04-02T18:14:46.785Z,6.34
2023-04-02T18:17:22.003Z,6.24
2023-04-02T18:19:54.514Z,6.11
2023-04-02T18:22:33.100Z,6.02
2023-04-02T18:25:27.454Z,5.99
2023-04-02T18:28:15.173Z,5.93
2023-04-02T18:31:04.304Z,5.83
2023-04-02T18:34:02.856Z,5.75
2023-04-02T18:36:47.509Z,5.66
2023-04-02T18:39:23.266Z,5.53
2023-04-02T18:41:58.668Z,5.33
2023-04-02T18:44:38.693Z,5.18
2023-04-02T18:47:17.330Z,5.03
2023-04-02T18:49:53.058Z,4.86
2023-04-02T18:52:23.326Z,4.78
2023-04-02T18:55:02.147Z,4.67
2023-04-02T18:57:34.120Z,4.67
2023-04-02T19:00:28.120Z,4.57
2023-04-02T19:03:09.827Z,4.54
2023-04-02T19:06:03.362Z,4.44
2023-04-02T19:08:39.254Z,4.31
2023-04-02T19:11:14.211Z,4.22
2023-04-02T19:13:45.090Z,4.15
2023-04-02T19:16:46.343Z,4.07
2023-04-02T19:19:28.018Z,4.21
2023-04-02T19:22:16.619Z,4.26
2023-04-02T19:25:04.617Z,4.18
2023-04-02T19:27:40.126Z,4.02
2023-04-02T19:30:28.765Z,3.89
2023-04-02T19:33:16.343Z,3.80
2023-04-02T19:36:01.230Z,3.77
2023-04-02T19:38:59.478Z,3.80
2023-04-02T19:41:48.445Z,3.74
2023-04-02T19:44:18.490Z,3.67
2023-04-02T19:46:48.694Z,3.63
2023-04-02T19:49:23.133Z,3.58
2023-04-02T19:51:53.681Z,3.53
2023-04-02T19:54:23.731Z,3.45
2023-04-02T19:56:53.046Z,3.40
2023-04-02T19:59:22.589Z,3.33
2023-04-02T20:01:52.120Z,3.35
2023-04-02T20:04:21.452Z,3.38
2023-04-02T20:06:51.843Z,3.38
2023-04-02T20:09:21.526Z,3.37
2023-04-02T20:11:50.889Z,3.26
2023-04-02T20:14:20.339Z,3.29
2023-04-02T20:16:49.775Z,3.35
2023-04-02T20:19:19.059Z,3.36
2023-04-02T20:21:48.401Z,3.28
2023-04-02T20:24:17.891Z,3.38
2023-04-02T20:26:47.172Z,3.52
2023-04-02T20:29:16.958Z,3.50
2023-04-02T20:31:46.293Z,3.40
2023-04-02T20:34:15.852Z,3.28
2023-04-02T20:36:45.994Z,3.20
2023-04-02T20:39:17.004Z,3.21
2023-04-02T20:41:48.221Z,3.07
2023-04-02T20:44:17.548Z,2.95
2023-04-02T20:46:47.031Z,2.92
2023-04-02T20:49:16.666Z,3.02
2023-04-02T20:51:47.826Z,2.87
2023-04-02T20:54:17.268Z,2.91
2023-04-02T20:56:46.580Z,2.74
2023-04-02T20:59:15.861Z,2.67
2023-04-02T21:01:46.132Z,2.63
2023-04-02T21:04:15.577Z,2.66
2023-04-02T21:06:45.261Z,2.80
2023-04-02T21:09:19.617Z,2.89
2023-04-02T21:11:48.949Z,2.78
2023-04-02T21:14:19.033Z,2.74
2023-04-02T21:16:48.347Z,2.72
2023-04-02T21:19:18.052Z,2.70
2023-04-02T21:21:47.778Z,2.74
2023-04-02T21:24:17.037Z,2.75
2023-04-02T21:26:46.486Z,2.56
2023-04-02T21:29:15.884Z,2.51
2023-04-02T21:31:45.628Z,2.57
2023-04-02T21:34:16.914Z,2.50
2023-04-02T21:36:48.223Z,2.47
2023-04-02T21:39:20.729Z,2.42
2023-04-02T21:41:53.374Z,2.54
2023-04-02T21:44:24.182Z,2.60
2023-04-02T21:46:54.630Z,2.44
2023-04-02T21:49:26.290Z,2.60
2023-04-02T21:51:56.136Z,2.68
2023-04-02T21:54:25.748Z,2.59
2023-04-02T21:56:55.506Z,2.68
2023-04-02T21:59:24.813Z,2.81
2023-04-02T22:01:54.545Z,2.80
2023-04-02T22:04:28.739Z,2.82
2023-04-02T22:06:58.309Z,3.05
2023-04-02T22:09:27.752Z,2.94
2023-04-02T22:12:02.299Z,2.84
2023-04-02T22:14:31.890Z,2.76
2023-04-02T22:17:01.855Z,2.77
2023-04-02T22:19:33.006Z,2.78
2023-04-02T22:22:02.668Z,2.76
2023-04-02T22:24:32.081Z,2.78
2023-04-02T22:27:01.612Z,2.72
2023-04-02T22:29:30.901Z,2.61
2023-04-02T22:32:00.491Z,2.67
2023-04-02T22:34:29.961Z,2.78
2023-04-02T22:37:00.050Z,2.79
2023-04-02T22:39:29.296Z,2.80
2023-04-02T22:41:59.310Z,2.78
2023-04-02T22:44:28.555Z,2.78
2023-04-02T22:46:57.991Z,2.72
2023-04-02T22:49:27.245Z,2.77
2023-04-02T22:51:56.851Z,2.59
2023-04-02T22:54:26.080Z,2.47
2023-04-02T22:56:55.680Z,2.44
2023-04-02T22:59:24.897Z,2.40
2023-04-02T23:01:54.266Z,2.37
2023-04-02T23:04:23.609Z,2.36
2023-04-02T23:06:52.975Z,2.37
2023-04-02T23:09:22.226Z,2.32
2023-04-02T23:11:51.776Z,2.33
2023-04-02T23:14:21.273Z,2.20
2023-04-02T23:16:50.675Z,2.14
2023-04-02T23:19:20.020Z,2.11
2023-04-02T23:21:49.671Z,2.19
2023-04-02T23:24:18.921Z,2.04
2023-04-02T23:26:48.235Z,1.98
2023-04-02T23:29:17.526Z,2.01
2023-04-02T23:31:47.369Z,1.96
2023-04-02T23:34:16.804Z,1.96
2023-04-02T23:36:46.566Z,1.93
2023-04-02T23:39:16.094Z,2.10
2023-04-02T23:41:45.692Z,2.11
2023-04-02T23:44:15.585Z,2.06
2023-04-02T23:46:44.891Z,1.88
2023-04-02T23:49:14.416Z,1.89
2023-04-02T23:51:43.708Z,1.90
2023-04-02T23:54:13.833Z,1.91
2023-04-02T23:56:43.612Z,1.84
2023-04-02T23:59:13.160Z,1.80
